Time;durP1;ratioP1;P1;durP2;ratioP2;P2;SDS_P1;SDS_P2;PMS_P1;PMS_P2;Temp;Humidity;BMP_temperature;BMP_pressure;BME280_temperature;BME280_humidity;BME280_pressure;Samples;Min_cycle;Max_cycle;Signal;HPM_P1;HPM_P2
2023/08/14 00:01:21;;;;;;;6.80;6.20;;;19.60;65.80;;;;;;6242963;28;20755;-78
2023/08/14 00:04:24;;;;;;;6.00;5.60;;;19.50;65.90;;;;;;6234992;28;20230;-79
2023/08/14 00:07:28;;;;;;;7.30;5.40;;;19.50;65.80;;;;;;6228753;28;20230;-77
2023/08/14 00:10:32;;;;;;;6.37;5.90;;;19.50;65.90;;;;;;6234994;28;20247;-78
2023/08/14 00:13:50;;;;;;;5.70;5.40;;;19.40;65.90;;;;;;6243568;28;20861;-79
2023/08/14 00:16:53;;;;;;;8.37;6.40;;;19.40;66.30;;;;;;6240412;28;20231;-78
2023/08/14 00:19:57;;;;;;;6.17;5.73;;;19.30;66.50;;;;;;6233392;28;20235;-79
2023/08/14 00:23:00;;;;;;;5.80;5.50;;;19.30;66.50;;;;;;6239483;28;20618;-80
2023/08/14 00:26:05;;;;;;;5.20;4.93;;;19.20;66.50;;;;;;6234950;28;20613;-79
2023/08/14 00:29:08;;;;;;;5.20;4.90;;;19.20;66.70;;;;;;6233951;28;20254;-80
2023/08/14 00:32:11;;;;;;;5.50;5.30;;;19.10;66.90;;;;;;6238687;28;20791;-80
2023/08/14 00:35:14;;;;;;;5.50;5.20;;;19.00;67.10;;;;;;6243428;28;20242;-79
2023/08/14 00:38:17;;;;;;;5.30;5.00;;;19.00;67.30;;;;;;6240663;28;20750;-78
2023/08/14 00:41:22;;;;;;;6.00;5.50;;;18.90;67.40;;;;;;6239187;28;20285;-80
2023/08/14 00:44:25;;;;;;;5.67;5.27;;;18.90;67.60;;;;;;6241099;28;20765;-77
2023/08/14 00:47:28;;;;;;;5.70;5.23;;;18.90;67.70;;;;;;6240452;28;20238;-76
2023/08/14 00:50:32;;;;;;;5.77;5.27;;;18.90;67.80;;;;;;6231498;28;20744;-78
2023/08/14 00:53:35;;;;;;;5.17;4.87;;;18.90;67.90;;;;;;6242136;28;20794;-82
2023/08/14 00:56:41;;;;;;;5.20;4.87;;;18.90;68.00;;;;;;6239689;28;20231;-77
2023/08/14 00:59:46;;;;;;;5.73;5.27;;;18.90;68.20;;;;;;6231684;28;20257;-79
2023/08/14 01:02:50;;;;;;;5.60;5.30;;;18.90;68.20;;;;;;6238910;28;20258;-77
2023/08/14 01:05:53;;;;;;;5.80;5.40;;;18.90;68.40;;;;;;6240321;28;20235;-78
2023/08/14 01:08:57;;;;;;;5.50;5.27;;;18.90;68.50;;;;;;6239420;28;20972;-79
2023/08/14 01:12:12;;;;;;;5.73;5.43;;;18.80;68.70;;;;;;6241198;28;20273;-79
2023/08/14 01:15:21;;;;;;;4.77;4.57;;;18.80;68.80;;;;;;6231177;28;20239;-78
2023/08/14 01:18:27;;;;;;;5.20;5.00;;;18.80;69.00;;;;;;6224690;28;20370;-76
2023/08/14 01:21:39;;;;;;;5.10;4.90;;;18.70;69.20;;;;;;6238739;28;20235;-79
2023/08/14 01:24:50;;;;;;;5.87;5.47;;;18.70;69.20;;;;;;6236243;28;20265;-79
2023/08/14 01:27:56;;;;;;;5.77;5.50;;;18.70;69.30;;;;;;6239366;28;20250;-77
2023/08/14 01:30:59;;;;;;;5.70;5.40;;;18.60;69.40;;;;;;6239411;28;20607;-77
2023/08/14 01:34:02;;;;;;;5.33;5.13;;;18.60;69.60;;;;;;6233709;28;20236;-78
2023/08/14 01:37:13;;;;;;;6.23;5.83;;;18.50;69.90;;;;;;6224868;28;20230;-78
2023/08/14 01:40:29;;;;;;;6.03;5.70;;;18.50;70.20;;;;;;6238661;28;20238;-78
2023/08/14 01:43:38;;;;;;;6.23;5.83;;;18.40;70.30;;;;;;6230318;28;20312;-78
2023/08/14 01:46:44;;;;;;;5.53;5.13;;;18.40;70.50;;;;;;6238682;28;20231;-78
2023/08/14 01:49:49;;;;;;;6.13;5.83;;;18.30;70.60;;;;;;6237930;28;20242;-78
2023/08/14 01:52:52;;;;;;;5.73;5.53;;;18.30;70.90;;;;;;6238051;28;20241;-77
2023/08/14 01:55:55;;;;;;;6.43;6.03;;;18.20;71.10;;;;;;6237648;28;20309;-78
2023/08/14 01:59:00;;;;;;;6.60;6.10;;;18.20;71.50;;;;;;6237780;28;20286;-77
2023/08/14 02:02:03;;;;;;;5.87;5.67;;;18.20;71.60;;;;;;6229532;28;20239;-78
2023/08/14 02:05:06;;;;;;;5.83;5.60;;;18.10;71.80;;;;;;6231141;28;20245;-79
2023/08/14 02:08:10;;;;;;;5.90;5.60;;;18.10;72.10;;;;;;6243524;28;20237;-77
2023/08/14 02:11:13;;;;;;;5.60;5.40;;;18.10;72.30;;;;;;6221127;28;20342;-79
2023/08/14 02:14:17;;;;;;;6.23;5.83;;;18.10;72.40;;;;;;6236268;28;20226;-78
2023/08/14 02:17:21;;;;;;;6.10;5.90;;;18.00;72.50;;;;;;6236690;28;20415;-79
2023/08/14 02:20:25;;;;;;;5.73;5.53;;;18.00;72.70;;;;;;6228733;28;20230;-79
2023/08/14 02:23:29;;;;;;;5.60;5.40;;;18.00;72.70;;;;;;6229028;28;20310;-77
2023/08/14 02:26:32;;;;;;;6.30;6.03;;;18.00;72.80;;;;;;6228876;28;20246;-78
2023/08/14 02:29:36;;;;;;;5.70;5.50;;;18.00;73.00;;;;;;6227083;28;20242;-78
2023/08/14 02:32:39;;;;;;;5.90;5.60;;;18.00;73.20;;;;;;6227873;28;20227;-79
2023/08/14 02:35:43;;;;;;;5.47;5.27;;;18.00;73.30;;;;;;6237731;28;20227;-79
2023/08/14 02:38:46;;;;;;;6.07;5.77;;;18.00;73.40;;;;;;6208193;28;20253;-77
2023/08/14 02:41:49;;;;;;;6.07;5.77;;;18.00;73.60;;;;;;6233490;28;20231;-78
2023/08/14 02:44:54;;;;;;;5.53;5.33;;;17.90;73.70;;;;;;6233295;28;20234;-78
2023/08/14 02:47:57;;;;;;;5.87;5.47;;;17.80;73.80;;;;;;6237491;28;20277;-76
2023/08/14 02:51:01;;;;;;;5.67;5.47;;;17.80;73.90;;;;;;6237799;28;20234;-78
2023/08/14 02:54:05;;;;;;;5.63;5.43;;;17.80;73.90;;;;;;6230979;28;20594;-77
2023/08/14 02:57:10;;;;;;;5.40;5.20;;;17.80;74.00;;;;;;6229856;28;20259;-77
2023/08/14 03:00:15;;;;;;;5.53;5.33;;;17.80;73.90;;;;;;6228686;28;20230;-77
2023/08/14 03:03:18;;;;;;;6.10;5.80;;;17.80;74.00;;;;;;6232635;28;20251;-77
2023/08/14 03:06:22;;;;;;;6.33;6.03;;;17.80;74.10;;;;;;6220553;28;20235;-76
2023/08/14 03:09:25;;;;;;;5.57;5.13;;;17.80;74.20;;;;;;6226485;28;20300;-76
2023/08/14 03:12:29;;;;;;;5.27;4.97;;;17.80;74.30;;;;;;6224688;28;20243;-77
2023/08/14 03:15:33;;;;;;;5.43;5.23;;;17.70;74.30;;;;;;6237557;28;20242;-76
2023/08/14 03:18:37;;;;;;;5.07;4.87;;;17.60;74.30;;;;;;6236810;28;20242;-78
2023/08/14 03:21:42;;;;;;;5.77;5.37;;;17.60;74.30;;;;;;6236375;28;20624;-77
2023/08/14 03:24:45;;;;;;;5.80;5.53;;;17.60;74.30;;;;;;6244894;28;20265;-78
2023/08/14 03:27:49;;;;;;;5.60;5.40;;;17.50;74.50;;;;;;6245029;28;20237;-78
2023/08/14 03:30:54;;;;;;;5.77;5.50;;;17.50;74.40;;;;;;6240086;28;20239;-78
2023/08/14 03:33:57;;;;;;;5.13;4.93;;;17.50;74.60;;;;;;6211868;28;20317;-76
2023/08/14 03:37:00;;;;;;;6.00;5.47;;;17.50;74.60;;;;;;6244020;28;20237;-77
2023/08/14 03:40:04;;;;;;;5.40;5.20;;;17.40;74.70;;;;;;6239375;28;20241;-77
2023/08/14 03:43:07;;;;;;;5.40;5.20;;;17.40;74.80;;;;;;6239500;28;20253;-77
2023/08/14 03:46:12;;;;;;;5.03;4.80;;;17.40;74.90;;;;;;6241228;28;20285;-77
2023/08/14 03:49:16;;;;;;;5.47;5.10;;;17.30;75.00;;;;;;6242092;28;20268;-77
2023/08/14 03:52:19;;;;;;;5.50;5.30;;;17.20;75.00;;;;;;6235941;28;20928;-74
2023/08/14 03:55:22;;;;;;;5.40;5.20;;;17.20;75.10;;;;;;6242792;28;20238;-76
2023/08/14 03:58:25;;;;;;;5.00;4.80;;;17.20;75.20;;;;;;6237890;28;20620;-75
2023/08/14 04:01:30;;;;;;;5.63;5.43;;;17.20;75.20;;;;;;6238074;28;20230;-76
2023/08/14 04:04:33;;;;;;;5.30;5.10;;;17.20;75.30;;;;;;6243194;28;20325;-75
2023/08/14 04:07:36;;;;;;;5.57;5.20;;;17.10;75.50;;;;;;6241771;28;20316;-76
2023/08/14 04:10:39;;;;;;;5.03;4.93;;;17.10;75.50;;;;;;6242412;28;20234;-76
2023/08/14 04:13:42;;;;;;;5.33;5.13;;;17.00;75.60;;;;;;6242111;28;20778;-75
2023/08/14 04:16:47;;;;;;;5.60;5.30;;;17.10;75.70;;;;;;6241282;28;20297;-80
2023/08/14 04:19:50;;;;;;;6.07;5.77;;;17.00;75.70;;;;;;6243704;28;20254;-76
2023/08/14 04:22:53;;;;;;;6.57;6.17;;;17.00;75.80;;;;;;6245328;28;20238;-78
2023/08/14 04:25:56;;;;;;;5.97;5.63;;;17.10;75.90;;;;;;6251125;28;20241;-75
2023/08/14 04:29:00;;;;;;;6.47;6.07;;;17.20;75.90;;;;;;6250991;28;20250;-79
2023/08/14 04:32:04;;;;;;;6.20;5.90;;;17.20;75.90;;;;;;6238338;28;20274;-77
2023/08/14 04:35:09;;;;;;;6.43;6.10;;;17.30;75.70;;;;;;6228163;28;20226;-80
2023/08/14 04:38:12;;;;;;;5.80;5.60;;;17.40;75.60;;;;;;6238333;28;20849;-81
2023/08/14 04:41:15;;;;;;;6.00;5.60;;;17.40;75.60;;;;;;6237524;28;20284;-81
2023/08/14 04:44:18;;;;;;;6.70;6.23;;;17.40;75.50;;;;;;6238117;28;20321;-82
2023/08/14 04:47:23;;;;;;;5.70;5.40;;;17.50;75.30;;;;;;6237070;28;20242;-81
2023/08/14 04:50:26;;;;;;;5.90;5.60;;;17.50;75.20;;;;;;6237841;28;20245;-79
2023/08/14 04:53:29;;;;;;;5.80;5.53;;;17.50;75.10;;;;;;6223497;28;20468;-80
2023/08/14 04:56:32;;;;;;;5.47;5.27;;;17.60;75.00;;;;;;6236075;28;20231;-76
2023/08/14 04:59:35;;;;;;;5.73;5.53;;;17.70;74.80;;;;;;6239019;28;20239;-77
2023/08/14 05:02:40;;;;;;;6.17;5.90;;;17.80;74.70;;;;;;6239154;28;20259;-77
2023/08/14 05:05:43;;;;;;;6.03;5.73;;;17.80;74.50;;;;;;6235356;28;20270;-78
2023/08/14 05:08:46;;;;;;;5.60;5.37;;;17.90;74.30;;;;;;6218146;28;20350;-75
2023/08/14 05:11:49;;;;;;;5.50;5.27;;;18.00;74.20;;;;;;6237919;28;20245;-78
2023/08/14 05:14:53;;;;;;;6.07;5.57;;;18.10;74.00;;;;;;6220616;28;20370;-78
2023/08/14 05:17:58;;;;;;;6.63;6.13;;;18.20;73.90;;;;;;6246132;28;20250;-77
2023/08/14 05:21:01;;;;;;;7.00;6.40;;;18.30;73.80;;;;;;6230365;28;20745;-78
2023/08/14 05:24:05;;;;;;;6.57;6.20;;;18.40;73.60;;;;;;6222129;28;20243;-78
2023/08/14 05:27:08;;;;;;;6.00;5.70;;;18.50;73.30;;;;;;6229702;28;20289;-77
2023/08/14 05:30:12;;;;;;;5.90;5.50;;;18.70;73.00;;;;;;6230974;28;20254;-77
2023/08/14 05:33:17;;;;;;;5.63;5.33;;;18.80;72.70;;;;;;6241077;28;20313;-79
2023/08/14 05:36:20;;;;;;;5.70;5.47;;;19.00;72.40;;;;;;6219190;28;20308;-79
2023/08/14 05:39:23;;;;;;;6.07;5.77;;;19.10;72.00;;;;;;6237442;28;20254;-80
2023/08/14 05:42:26;;;;;;;7.17;6.47;;;19.30;71.80;;;;;;6243839;28;20277;-80
2023/08/14 05:45:29;;;;;;;6.20;5.80;;;19.30;71.40;;;;;;6261034;28;20245;-79
2023/08/14 05:48:33;;;;;;;6.50;6.20;;;19.40;71.20;;;;;;6239081;28;20243;-79
2023/08/14 05:51:37;;;;;;;6.07;5.63;;;19.60;71.10;;;;;;6243450;28;20236;-77
2023/08/14 05:54:40;;;;;;;5.27;4.97;;;19.80;70.50;;;;;;6243847;28;20251;-78
2023/08/14 05:57:43;;;;;;;6.43;5.87;;;20.00;70.20;;;;;;6230174;28;20224;-78
2023/08/14 06:00:46;;;;;;;7.77;6.30;;;20.30;69.30;;;;;;6237081;28;20315;-79
2023/08/14 06:03:51;;;;;;;6.40;6.03;;;20.30;68.60;;;;;;6245167;28;20275;-78
2023/08/14 06:06:54;;;;;;;6.57;6.00;;;20.50;68.20;;;;;;6239584;28;20219;-79
2023/08/14 06:09:57;;;;;;;5.43;5.13;;;20.60;68.30;;;;;;6245612;28;20262;-79
2023/08/14 06:13:01;;;;;;;6.50;5.90;;;21.00;67.70;;;;;;6241938;28;20220;-80
2023/08/14 06:16:04;;;;;;;5.87;5.50;;;21.30;67.10;;;;;;6245145;28;20216;-80
2023/08/14 06:19:09;;;;;;;5.97;5.57;;;21.50;66.60;;;;;;6255863;28;20222;-78
2023/08/14 06:22:12;;;;;;;7.47;5.87;;;21.70;65.50;;;;;;6269117;28;20227;-81
2023/08/14 06:25:18;;;;;;;6.13;5.57;;;21.90;65.10;;;;;;6269305;28;20223;-78
2023/08/14 06:28:21;;;;;;;6.60;6.13;;;22.10;64.80;;;;;;6269539;28;20250;-80
2023/08/14 06:31:24;;;;;;;7.00;6.30;;;22.20;64.00;;;;;;6266821;28;20223;-78
2023/08/14 06:34:29;;;;;;;8.63;5.47;;;22.30;63.30;;;;;;6268401;28;20218;-79
2023/08/14 06:37:32;;;;;;;5.87;5.47;;;22.10;64.20;;;;;;6269008;28;20253;-81
2023/08/14 06:40:35;;;;;;;6.37;5.87;;;22.40;64.00;;;;;;6256195;28;20226;-80
2023/08/14 06:43:38;;;;;;;6.97;6.37;;;22.60;63.50;;;;;;6249809;28;20235;-81
2023/08/14 06:46:41;;;;;;;6.13;5.53;;;22.80;63.20;;;;;;6228529;28;20258;-82
2023/08/14 06:49:46;;;;;;;6.10;5.70;;;23.00;62.80;;;;;;6238064;28;20264;-79
2023/08/14 06:52:49;;;;;;;6.33;5.80;;;22.90;62.80;;;;;;6234053;28;20265;-76
2023/08/14 06:55:52;;;;;;;11.77;5.53;;;23.10;62.40;;;;;;6231136;28;20246;-78
2023/08/14 06:58:55;;;;;;;5.87;5.57;;;23.40;62.20;;;;;;6235975;28;20230;-77
2023/08/14 07:01:58;;;;;;;6.17;5.57;;;23.60;62.10;;;;;;6237082;28;20246;-78
2023/08/14 07:05:03;;;;;;;5.93;5.43;;;23.50;61.70;;;;;;6237430;28;20567;-77
2023/08/14 07:08:06;;;;;;;6.83;4.97;;;23.60;61.70;;;;;;6233621;28;20727;-77
2023/08/14 07:11:10;;;;;;;6.17;5.40;;;23.80;61.00;;;;;;6237675;28;20226;-77
2023/08/14 07:14:13;;;;;;;4.43;4.27;;;23.90;60.30;;;;;;6236582;28;20230;-76
2023/08/14 07:17:16;;;;;;;4.53;4.23;;;24.10;60.30;;;;;;6238086;28;20254;-77
2023/08/14 07:20:21;;;;;;;4.87;4.47;;;24.30;60.10;;;;;;6237824;28;20231;-77
2023/08/14 07:23:28;;;;;;;5.90;4.40;;;24.50;59.80;;;;;;6230061;28;20235;-77
2023/08/14 07:26:31;;;;;;;8.67;5.27;;;24.90;58.70;;;;;;6237138;28;20249;-78
2023/08/14 07:29:34;;;;;;;6.87;5.03;;;25.00;59.30;;;;;;6239251;28;20249;-77
2023/08/14 07:32:38;;;;;;;4.73;4.40;;;25.00;58.60;;;;;;6231871;28;20243;-79
2023/08/14 07:35:43;;;;;;;4.93;4.47;;;25.00;58.20;;;;;;6239347;28;20231;-82
2023/08/14 07:38:46;;;;;;;8.30;4.93;;;25.00;58.10;;;;;;6226370;28;20987;-79
2023/08/14 07:41:49;;;;;;;4.50;4.20;;;25.00;57.80;;;;;;6235763;28;20679;-81
2023/08/14 07:44:52;;;;;;;9.77;4.13;;;25.00;57.70;;;;;;6239481;28;20286;-81
2023/08/14 07:47:55;;;;;;;5.10;4.70;;;25.00;57.10;;;;;;6235869;28;20266;-81
2023/08/14 07:51:00;;;;;;;5.23;4.83;;;25.00;57.80;;;;;;6235450;28;20723;-84
2023/08/14 07:54:03;;;;;;;4.60;4.40;;;25.00;58.00;;;;;;6231467;28;20238;-81
2023/08/14 07:57:06;;;;;;;4.27;4.00;;;25.00;58.10;;;;;;6235961;28;20230;-82
2023/08/14 08:00:11;;;;;;;4.93;4.63;;;25.00;57.80;;;;;;6233026;28;20232;-83
2023/08/14 08:03:16;;;;;;;4.47;4.17;;;25.00;57.70;;;;;;6237559;28;20223;-80
2023/08/14 08:06:20;;;;;;;4.53;4.23;;;24.70;57.40;;;;;;6237802;28;20768;-84
2023/08/14 08:09:24;;;;;;;4.43;4.03;;;24.70;57.50;;;;;;6235938;28;20235;-80
2023/08/14 08:12:27;;;;;;;4.27;3.97;;;24.50;57.50;;;;;;6241080;28;20246;-80
2023/08/14 08:15:30;;;;;;;4.20;4.00;;;24.60;57.80;;;;;;6237617;28;20238;-79
2023/08/14 08:18:34;;;;;;;4.57;3.50;;;24.60;57.50;;;;;;6206366;28;20330;-81
2023/08/14 08:21:39;;;;;;;5.80;3.93;;;24.80;57.50;;;;;;6236781;28;20234;-79
2023/08/14 08:24:42;;;;;;;4.50;4.10;;;25.00;56.20;;;;;;6228509;28;20234;-81
2023/08/14 08:27:45;;;;;;;4.97;4.47;;;25.00;56.20;;;;;;6237853;28;20242;-82
2023/08/14 08:30:48;;;;;;;4.30;4.10;;;24.90;55.70;;;;;;6240298;28;20764;-79
2023/08/14 08:33:51;;;;;;;4.60;4.20;;;24.90;56.40;;;;;;6220971;28;20247;-78
2023/08/14 08:36:56;;;;;;;4.53;4.23;;;25.00;56.50;;;;;;6240843;28;20257;-80
2023/08/14 08:39:59;;;;;;;4.37;4.07;;;25.20;55.40;;;;;;6236536;28;20243;-79
2023/08/14 08:43:03;;;;;;;4.20;4.10;;;25.30;55.50;;;;;;6234749;28;20242;-80
2023/08/14 08:46:09;;;;;;;4.30;4.00;;;25.40;55.10;;;;;;6229777;28;20788;-79
2023/08/14 08:49:13;;;;;;;4.30;4.00;;;25.40;55.10;;;;;;6233325;28;20782;-81
2023/08/14 08:52:18;;;;;;;3.87;3.67;;;25.40;55.40;;;;;;6229772;28;20230;-80
2023/08/14 08:55:22;;;;;;;4.17;3.97;;;25.50;55.00;;;;;;6240070;28;20739;-80
2023/08/14 08:58:26;;;;;;;4.47;4.13;;;25.60;53.50;;;;;;6241273;28;20230;-81
2023/08/14 09:01:29;;;;;;;5.60;3.90;;;25.50;54.00;;;;;;6235360;28;20329;-81
2023/08/14 09:04:34;;;;;;;4.13;3.83;;;25.60;55.00;;;;;;6239335;28;20234;-79
2023/08/14 09:07:38;;;;;;;4.27;3.80;;;25.80;54.50;;;;;;6239737;28;20236;-81
2023/08/14 09:10:42;;;;;;;4.03;3.63;;;25.60;52.20;;;;;;6233065;28;20877;-81
2023/08/14 09:13:46;;;;;;;4.17;3.97;;;25.70;52.90;;;;;;6238739;28;20353;-79
2023/08/14 09:16:53;;;;;;;3.90;3.70;;;25.90;52.50;;;;;;6222873;28;20258;-80
2023/08/14 09:19:56;;;;;;;5.33;3.90;;;26.00;53.40;;;;;;6226928;28;20912;-82
2023/08/14 09:23:01;;;;;;;6.07;5.47;;;26.00;52.30;;;;;;6224958;28;21704;-80
2023/08/14 09:26:05;;;;;;;4.67;4.27;;;26.00;52.80;;;;;;6240145;28;20243;-81
2023/08/14 09:29:09;;;;;;;4.50;3.57;;;26.00;52.10;;;;;;6232455;28;20246;-82
2023/08/14 09:32:15;;;;;;;4.03;3.83;;;26.00;52.40;;;;;;6236451;28;20234;-82
2023/08/14 09:35:19;;;;;;;3.47;3.17;;;26.10;51.30;;;;;;6225962;28;20250;-82
2023/08/14 09:38:23;;;;;;;3.43;3.33;;;26.30;50.30;;;;;;6234760;28;20239;-80
2023/08/14 09:41:27;;;;;;;3.23;3.13;;;26.40;50.70;;;;;;6238135;28;20320;-80
2023/08/14 09:44:30;;;;;;;7.00;6.50;;;26.50;51.00;;;;;;6239771;28;20312;-81
2023/08/14 09:47:33;;;;;;;4.67;4.47;;;26.60;50.80;;;;;;6238308;28;20253;-81
2023/08/14 09:50:36;;;;;;;3.50;3.20;;;26.70;50.60;;;;;;6235339;28;20317;-81
2023/08/14 09:53:50;;;;;;;3.17;2.90;;;26.70;50.70;;;;;;6237661;28;20246;-84
2023/08/14 09:56:53;;;;;;;4.10;3.77;;;26.80;50.90;;;;;;6228232;28;20246;-81
2023/08/14 09:59:57;;;;;;;3.57;3.37;;;26.90;50.80;;;;;;6221726;28;20245;-83
2023/08/14 10:03:03;;;;;;;11.50;3.50;;;27.00;51.00;;;;;;6232330;28;20247;-83
2023/08/14 10:06:08;;;;;;;3.13;3.00;;;27.00;50.70;;;;;;6233369;28;20723;-81
2023/08/14 10:09:13;;;;;;;3.20;3.03;;;27.00;51.10;;;;;;6233149;28;20330;-82
2023/08/14 10:12:19;;;;;;;3.57;2.83;;;27.10;50.30;;;;;;6238522;28;20235;-84
2023/08/14 10:15:26;;;;;;;3.33;3.13;;;27.20;50.20;;;;;;6238617;28;20234;-83
2023/08/14 10:18:32;;;;;;;3.53;3.33;;;27.30;50.30;;;;;;6224006;28;20239;-78
2023/08/14 10:21:38;;;;;;;5.33;3.77;;;27.50;50.10;;;;;;6237244;28;20267;-77
2023/08/14 10:24:44;;;;;;;3.20;2.97;;;27.70;51.00;;;;;;6232138;28;21052;-78
2023/08/14 10:27:47;;;;;;;4.33;3.37;;;27.70;51.10;;;;;;6229498;28;20242;-81
2023/08/14 10:30:51;;;;;;;4.20;3.23;;;27.90;50.40;;;;;;6230392;28;20666;-77
2023/08/14 10:33:57;;;;;;;3.60;3.30;;;28.00;49.60;;;;;;6233253;28;20713;-77
2023/08/14 10:37:00;;;;;;;3.17;2.87;;;28.00;49.70;;;;;;6228641;28;20317;-78
2023/08/14 10:40:16;;;;;;;4.27;3.03;;;28.10;50.20;;;;;;6231107;28;20234;-78
2023/08/14 10:43:26;;;;;;;3.13;2.97;;;28.10;49.00;;;;;;6236517;28;20223;-79
2023/08/14 10:46:33;;;;;;;2.90;2.73;;;28.00;48.60;;;;;;6229090;28;20247;-81
2023/08/14 10:49:45;;;;;;;3.60;3.40;;;27.90;49.00;;;;;;6233996;28;20246;-80
2023/08/14 10:52:52;;;;;;;3.37;2.80;;;28.10;49.50;;;;;;6231924;28;20235;-80
2023/08/14 10:55:57;;;;;;;3.00;2.90;;;28.10;49.40;;;;;;6235061;28;20238;-82
2023/08/14 10:59:00;;;;;;;2.90;2.70;;;28.30;48.70;;;;;;6228124;28;20247;-80
2023/08/14 11:02:13;;;;;;;6.23;3.17;;;28.30;48.40;;;;;;6237251;28;20247;-80
2023/08/14 11:05:16;;;;;;;6.13;3.20;;;28.50;48.00;;;;;;6237690;28;20231;-80
2023/08/14 11:08:21;;;;;;;3.33;3.23;;;28.50;48.50;;;;;;6237452;28;20280;-79
2023/08/14 11:11:26;;;;;;;3.50;3.30;;;28.20;48.20;;;;;;6234132;28;20234;-80
2023/08/14 11:14:30;;;;;;;3.27;3.00;;;28.20;48.80;;;;;;6235005;28;20712;-81
2023/08/14 11:17:33;;;;;;;2.77;2.63;;;28.30;48.90;;;;;;6235048;28;20747;-79
2023/08/14 11:20:38;;;;;;;4.93;2.47;;;28.30;49.30;;;;;;6229873;28;20268;-80
2023/08/14 11:23:41;;;;;;;5.43;2.70;;;28.50;49.20;;;;;;6238379;28;20622;-77
2023/08/14 11:26:46;;;;;;;3.90;2.57;;;28.60;47.60;;;;;;6243580;28;20243;-80
2023/08/14 11:29:49;;;;;;;2.20;2.00;;;28.70;48.10;;;;;;6237603;28;20241;-81
2023/08/14 11:32:57;;;;;;;5.38;3.00;;;28.70;47.80;;;;;;6217869;28;20242;-79
2023/08/14 11:36:01;;;;;;;2.95;2.75;;;28.90;48.20;;;;;;6234117;28;20235;-77
2023/08/14 11:39:13;;;;;;;2.55;2.55;;;28.90;48.40;;;;;;6230326;28;20962;-77
2023/08/14 11:42:17;;;;;;;2.80;2.60;;;28.90;48.40;;;;;;6232525;28;20665;-79
2023/08/14 11:45:21;;;;;;;2.45;2.40;;;29.00;48.30;;;;;;6245849;28;20229;-77
2023/08/14 11:48:24;;;;;;;3.38;3.08;;;29.00;48.30;;;;;;6241691;28;20238;-80
2023/08/14 11:51:29;;;;;;;3.10;3.00;;;29.10;48.20;;;;;;6238209;28;20280;-79
2023/08/14 11:54:34;;;;;;;3.22;3.05;;;29.30;48.30;;;;;;6224786;28;20249;-78
2023/08/14 11:57:39;;;;;;;3.10;2.92;;;29.30;48.40;;;;;;6241854;28;20238;-79
2023/08/14 12:00:43;;;;;;;3.28;3.17;;;29.10;48.70;;;;;;6238430;28;20266;-79
2023/08/14 12:03:47;;;;;;;3.17;2.97;;;29.20;48.20;;;;;;6239833;28;20243;-82
2023/08/14 12:06:50;;;;;;;4.10;3.53;;;29.30;49.50;;;;;;6236380;28;20282;-81
2023/08/14 12:09:54;;;;;;;5.43;3.75;;;29.50;48.50;;;;;;6243307;28;20273;-82
2023/08/14 12:12:59;;;;;;;4.47;3.60;;;29.70;48.40;;;;;;6235447;28;20239;-78
2023/08/14 12:16:07;;;;;;;3.47;3.22;;;29.70;48.10;;;;;;6236492;28;20243;-80
2023/08/14 12:19:21;;;;;;;3.60;3.30;;;29.90;48.40;;;;;;6235651;28;20231;-77
2023/08/14 12:22:26;;;;;;;3.67;3.38;;;30.00;47.40;;;;;;6240188;28;20239;-80
2023/08/14 12:25:29;;;;;;;3.80;3.20;;;30.10;48.00;;;;;;6239504;28;20231;-79
2023/08/14 12:28:34;;;;;;;3.88;3.38;;;30.00;47.80;;;;;;6230966;28;20277;-81
2023/08/14 12:31:37;;;;;;;3.47;3.20;;;30.20;47.20;;;;;;6239684;28;20258;-79
2023/08/14 12:34:40;;;;;;;4.35;3.42;;;30.00;47.40;;;;;;6239193;28;20281;-79
2023/08/14 12:37:45;;;;;;;2.90;2.78;;;30.10;47.70;;;;;;6240208;28;20245;-78
2023/08/14 12:40:48;;;;;;;4.03;3.08;;;30.10;48.20;;;;;;6244187;28;20246;-80
2023/08/14 12:43:52;;;;;;;4.20;2.90;;;30.30;47.50;;;;;;6239647;28;20246;-80
2023/08/14 12:46:56;;;;;;;3.13;2.80;;;30.30;47.00;;;;;;6236982;28;20247;-81
2023/08/14 12:49:59;;;;;;;3.15;2.50;;;30.30;47.10;;;;;;6239785;28;20238;-77
2023/08/14 12:53:03;;;;;;;2.95;2.67;;;30.30;46.70;;;;;;6240915;28;20238;-79
2023/08/14 12:56:06;;;;;;;3.35;2.80;;;30.30;47.30;;;;;;6244623;28;20238;-79
2023/08/14 12:59:11;;;;;;;3.15;2.95;;;30.20;47.30;;;;;;6240583;28;20235;-80
2023/08/14 13:02:14;;;;;;;6.78;3.20;;;30.10;47.10;;;;;;6239256;28;20421;-82
2023/08/14 13:05:17;;;;;;;4.50;2.88;;;30.00;47.20;;;;;;6239219;28;20239;-81
2023/08/14 13:08:20;;;;;;;2.75;2.58;;;30.00;47.20;;;;;;6239574;28;21135;-81
2023/08/14 13:11:25;;;;;;;2.58;2.47;;;30.00;47.30;;;;;;6236052;28;20238;-81
2023/08/14 13:14:30;;;;;;;4.55;2.85;;;30.10;47.30;;;;;;6239647;28;20237;-82
2023/08/14 13:17:33;;;;;;;4.38;2.67;;;30.30;46.40;;;;;;6239659;28;20720;-80
2023/08/14 13:20:36;;;;;;;3.05;2.72;;;30.50;46.50;;;;;;6240145;28;20321;-79
2023/08/14 13:23:39;;;;;;;2.78;2.50;;;30.60;46.10;;;;;;6238873;28;20241;-79
2023/08/14 13:26:43;;;;;;;2.72;2.53;;;30.70;46.90;;;;;;6239518;28;20231;-80
2023/08/14 13:29:47;;;;;;;2.90;2.80;;;30.70;46.20;;;;;;6240400;28;20739;-81
2023/08/14 13:32:50;;;;;;;6.22;2.90;;;30.70;46.00;;;;;;6234956;28;20289;-81
2023/08/14 13:35:54;;;;;;;3.40;3.05;;;30.70;46.00;;;;;;6242436;28;20238;-80
2023/08/14 13:38:57;;;;;;;2.92;2.72;;;30.60;45.60;;;;;;6235099;28;20249;-82
2023/08/14 13:42:00;;;;;;;3.20;2.70;;;30.30;46.20;;;;;;6233294;28;20274;-82
2023/08/14 13:45:05;;;;;;;4.28;2.80;;;30.10;47.20;;;;;;6239621;28;20250;-79
2023/08/14 13:48:20;;;;;;;3.33;3.22;;;30.10;46.80;;;;;;6230292;28;20735;-81
2023/08/14 13:51:23;;;;;;;3.90;2.75;;;30.20;47.10;;;;;;6228336;28;20234;-84
2023/08/14 13:54:26;;;;;;;2.97;2.72;;;30.30;47.20;;;;;;6231876;28;20301;-83
2023/08/14 13:57:31;;;;;;;4.40;2.67;;;30.30;47.40;;;;;;6237830;28;20282;-82
2023/08/14 14:00:35;;;;;;;7.50;2.80;;;30.10;47.20;;;;;;6229315;28;20861;-83
2023/08/14 14:03:38;;;;;;;2.45;2.35;;;29.90;47.60;;;;;;6222821;28;20234;-80
2023/08/14 14:06:44;;;;;;;2.85;2.65;;;29.90;47.20;;;;;;6233614;28;20242;-76
2023/08/14 14:09:47;;;;;;;3.30;3.10;;;29.90;47.80;;;;;;6236064;28;20866;-81
2023/08/14 14:12:50;;;;;;;2.70;2.50;;;29.90;47.80;;;;;;6235530;28;20269;-84
2023/08/14 14:15:57;;;;;;;3.05;2.78;;;29.90;47.70;;;;;;6236452;28;20744;-79
2023/08/14 14:19:00;;;;;;;3.25;2.80;;;29.90;47.40;;;;;;6236658;28;20747;-80
2023/08/14 14:22:04;;;;;;;6.15;2.90;;;30.00;47.50;;;;;;6236647;28;20328;-82
2023/08/14 14:25:07;;;;;;;2.90;2.70;;;29.90;47.60;;;;;;6234435;28;20246;-82
2023/08/14 14:28:10;;;;;;;2.92;2.70;;;29.90;47.20;;;;;;6236812;28;20235;-82
2023/08/14 14:31:15;;;;;;;3.42;2.75;;;29.90;47.90;;;;;;6238032;28;20266;-79
2023/08/14 14:34:18;;;;;;;5.03;2.90;;;30.00;48.00;;;;;;6235018;28;20234;-80
2023/08/14 14:37:21;;;;;;;4.75;3.05;;;30.00;47.70;;;;;;6237107;28;20243;-78
2023/08/14 14:40:25;;;;;;;3.65;3.38;;;30.00;48.20;;;;;;6239090;28;20231;-80
2023/08/14 14:43:29;;;;;;;3.35;2.60;;;30.00;47.70;;;;;;6237392;28;20238;-80
2023/08/14 14:46:34;;;;;;;2.63;2.60;;;30.00;48.10;;;;;;6237135;28;20318;-80
2023/08/14 14:49:37;;;;;;;2.85;2.65;;;29.90;47.70;;;;;;6236869;28;20262;-79
2023/08/14 14:52:40;;;;;;;5.03;2.80;;;29.90;47.80;;;;;;6237913;28;20231;-82
2023/08/14 14:55:43;;;;;;;2.60;2.53;;;29.80;47.80;;;;;;6237527;28;20748;-80
2023/08/14 14:58:47;;;;;;;3.25;3.13;;;29.80;48.10;;;;;;6238151;28;20234;-82
2023/08/14 15:01:51;;;;;;;3.15;3.00;;;29.70;48.10;;;;;;6231684;28;20238;-80
2023/08/14 15:04:54;;;;;;;3.30;2.97;;;29.70;48.10;;;;;;6235907;28;20286;-83
2023/08/14 15:07:58;;;;;;;3.53;3.30;;;29.50;48.10;;;;;;6236456;28;20390;-83
2023/08/14 15:11:01;;;;;;;2.90;2.70;;;29.50;48.70;;;;;;6229707;28;20231;-80
2023/08/14 15:14:04;;;;;;;3.40;3.15;;;29.50;48.90;;;;;;6231207;28;20848;-80
2023/08/14 15:17:10;;;;;;;3.35;2.97;;;29.40;48.90;;;;;;6236317;28;20735;-82
2023/08/14 15:20:13;;;;;;;3.80;3.50;;;29.30;48.60;;;;;;6235478;28;20254;-84
2023/08/14 15:23:17;;;;;;;3.20;2.95;;;29.30;48.90;;;;;;6233195;28;20313;-82
2023/08/14 15:26:20;;;;;;;4.13;3.08;;;29.20;48.70;;;;;;6237155;28;20242;-80
2023/08/14 15:29:23;;;;;;;3.05;2.92;;;29.20;49.00;;;;;;6226908;28;20256;-82
2023/08/14 15:32:28;;;;;;;3.10;2.90;;;29.00;49.40;;;;;;6234498;28;20243;-81
2023/08/14 15:35:31;;;;;;;3.75;3.28;;;29.00;49.80;;;;;;6233024;28;20234;-84
2023/08/14 15:38:35;;;;;;;4.78;3.22;;;28.90;50.20;;;;;;6230513;28;20239;-82
2023/08/14 15:41:38;;;;;;;3.88;3.58;;;28.70;50.00;;;;;;6234035;28;20232;-82
2023/08/14 15:44:41;;;;;;;2.85;2.75;;;28.50;49.70;;;;;;6236356;28;20707;-80
2023/08/14 15:47:58;;;;;;;3.33;3.15;;;28.40;50.20;;;;;;6229059;28;20238;-80
2023/08/14 15:51:01;;;;;;;3.30;3.10;;;28.30;50.40;;;;;;6239030;28;20238;-82
2023/08/14 15:54:04;;;;;;;3.10;2.90;;;28.20;50.70;;;;;;6235004;28;20234;-82
2023/08/14 15:57:08;;;;;;;3.22;3.13;;;28.10;50.90;;;;;;6233299;28;20246;-78
2023/08/14 16:00:13;;;;;;;3.90;3.70;;;28.10;51.40;;;;;;6233044;28;20239;-81